AHN weather

Athens Ben Epps Airport
Athens, Georgia, United States

Public forecast

Using degrees Fahrenheit for public forecast. Weather courtesy of forecast.io.

Current aviation weather report (METAR) for Athens Ben Epps Airport

Retrieved 2019/12/16 03:51 UTC (43 minutes ago):

KAHN 160351Z AUTO 14003KT 10SM OVC028 11/08 A3015 RMK AO2 SLP209 T01060083

Aviation forecast (TAF) for Athens Ben Epps Airport

Retrieved 2019-12-16 00:24 UTC (4 hours ago):

TAF KAHN 152320Z 1600/1624 VRB03KT P6SM SCT030 SCT090 FM160200 VRB03KT P6SM BKN030 FM161200 VRB03KT P6SM BKN020 FM161700 18005KT P6SM BKN040